Ihlen, Minnesota
Current Conditions -  °F | °C
As of 2:34 AM on Sunday 23 Nov 2014 (Local Time) from KPQN Reporting Station
Haze Haze  
Wind Chill: 35°   Ceiling: Unl
Heat Index: 39°   Visibility: 3mi
Dew Point: 37°   Wind: 6mph
Humidity: 93%   Direction: 190°S
Pressure: 29.41"   Gusts: NA
Location:  43.91°N, 96.37°W
Report Text: KPQN 230834Z AUTO 19005KT 3SM BR SCT120 04/03 A2941 RMK AO2
Loading
Personal Weather Stations






























Interactive Weather Map New forecast layout! Learn more

10-Day Weather Forecast

Advertisements
Track Severe Weather on mobile